createdAt,value
2023-12-27T08:56:10.920Z,6.25
2023-12-27T08:58:39.082Z,3.40
2023-12-27T09:01:13.121Z,4.10
2023-12-27T09:03:41.812Z,3.60
2023-12-27T09:06:14.950Z,3.70
2023-12-27T09:08:42.711Z,4.63
2023-12-27T09:11:12.457Z,4.05
2023-12-27T09:13:42.369Z,4.53
2023-12-27T09:16:09.945Z,3.53
2023-12-27T09:18:37.935Z,3.00
2023-12-27T09:21:10.535Z,2.53
2023-12-27T09:23:43.804Z,2.90
2023-12-27T09:26:15.889Z,3.85
2023-12-27T09:28:43.472Z,3.28
2023-12-27T09:31:15.516Z,2.20
2023-12-27T09:33:47.550Z,2.60
2023-12-27T09:36:25.064Z,3.58
2023-12-27T09:39:01.703Z,2.90
2023-12-27T09:41:36.902Z,2.30
2023-12-27T09:44:10.175Z,2.35
2023-12-27T09:46:45.212Z,2.70
2023-12-27T09:49:31.010Z,2.47
2023-12-27T09:52:36.269Z,2.20
2023-12-27T09:55:08.609Z,1.90
2023-12-27T09:57:51.724Z,1.70
2023-12-27T10:00:43.971Z,2.15
2023-12-27T10:03:31.984Z,2.47
2023-12-27T10:09:05.917Z,2.00
2023-12-27T10:11:57.107Z,1.88
2023-12-27T10:14:25.170Z,2.50
2023-12-27T10:17:17.710Z,1.63
2023-12-27T10:20:09.710Z,1.52
2023-12-27T10:22:47.534Z,2.00
2023-12-27T10:25:33.826Z,1.65
2023-12-27T10:28:07.673Z,1.80
2023-12-27T10:30:54.596Z,2.17
2023-12-27T10:33:30.038Z,2.03
2023-12-27T10:39:07.490Z,1.40
2023-12-27T10:42:03.759Z,1.67
2023-12-27T10:45:05.699Z,2.08
2023-12-27T10:47:35.926Z,1.60
2023-12-27T10:51:01.016Z,2.05
2023-12-27T10:56:34.785Z,1.50
2023-12-27T10:59:16.516Z,1.30
2023-12-27T11:02:30.257Z,1.60
2023-12-27T11:06:29.481Z,1.42
2023-12-27T11:09:01.056Z,1.67
2023-12-27T11:11:44.627Z,1.35
2023-12-27T11:14:43.958Z,1.83
2023-12-27T11:17:15.653Z,1.88
2023-12-27T11:19:51.780Z,1.73
2023-12-27T11:22:30.460Z,2.17
2023-12-27T11:25:20.966Z,1.35
2023-12-27T11:27:49.188Z,2.22
2023-12-27T11:30:33.833Z,1.92
2023-12-27T11:33:21.040Z,1.48
2023-12-27T11:35:55.381Z,2.40
2023-12-27T11:44:56.182Z,1.63
2023-12-27T11:47:25.054Z,1.83
2023-12-27T11:50:12.752Z,1.88
2023-12-27T11:52:43.354Z,1.70
2023-12-27T11:55:17.662Z,2.13
2023-12-27T11:57:45.017Z,1.73
2023-12-27T12:00:13.981Z,2.08
2023-12-27T12:02:52.699Z,2.42
2023-12-27T12:05:36.354Z,1.50
2023-12-27T12:08:09.911Z,2.00
2023-12-27T12:10:37.209Z,1.52
2023-12-27T12:13:05.277Z,2.50
2023-12-27T12:15:32.828Z,1.77
2023-12-27T12:18:00.872Z,1.60
2023-12-27T12:20:28.651Z,1.38
2023-12-27T12:22:56.950Z,1.67
2023-12-27T12:25:25.542Z,1.52
2023-12-27T12:27:53.032Z,1.70
2023-12-27T12:30:22.553Z,1.30
2023-12-27T12:32:50.271Z,1.10
2023-12-27T12:35:17.986Z,1.45
2023-12-27T12:37:45.578Z,1.75
2023-12-27T12:40:15.542Z,1.60
2023-12-27T12:42:43.298Z,1.60
2023-12-27T12:45:11.080Z,1.20
2023-12-27T12:47:39.483Z,1.60
2023-12-27T12:50:07.182Z,1.45
2023-12-27T12:52:38.109Z,2.28
2023-12-27T12:55:06.081Z,1.42
2023-12-27T12:57:33.746Z,2.08
2023-12-27T13:00:01.473Z,1.45
2023-12-27T13:02:29.164Z,1.80
2023-12-27T13:04:59.224Z,1.85
2023-12-27T13:16:46.951Z,1.60
2023-12-27T13:19:21.342Z,1.65
2023-12-27T13:21:54.940Z,1.75
2023-12-27T13:24:24.294Z,2.05
2023-12-27T13:26:53.478Z,2.30
2023-12-27T13:29:53.347Z,1.15
2023-12-27T13:32:54.887Z,1.77
2023-12-27T13:35:24.128Z,2.05
2023-12-27T13:37:58.254Z,1.80
2023-12-27T13:40:25.811Z,2.03
2023-12-27T13:43:13.988Z,1.60
2023-12-27T13:45:47.691Z,1.70
